createdAt,value
2017-06-05T00:00:30.518Z,12.03
2017-06-05T00:01:12.193Z,11.99
2017-06-05T00:01:52.884Z,12
2017-06-05T00:02:33.456Z,11.99
2017-06-05T00:03:15.193Z,11.97
2017-06-05T00:03:57.881Z,12.02
2017-06-05T00:04:44.320Z,11.99
2017-06-05T00:05:24.908Z,12
2017-06-05T00:06:06.568Z,11.99
2017-06-05T00:06:47.244Z,12.09
2017-06-05T00:07:27.942Z,11.91
2017-06-05T00:08:08.547Z,11.94
2017-06-05T00:08:50.209Z,12
2017-06-05T00:09:30.880Z,12.07
2017-06-05T00:10:11.584Z,12.04
2017-06-05T00:10:52.169Z,11.99
2017-06-05T00:11:33.820Z,11.94
2017-06-05T00:12:14.514Z,11.99
2017-06-05T00:12:56.339Z,11.97
2017-06-05T00:13:36.931Z,12
2017-06-05T00:14:17.574Z,11.99
2017-06-05T00:15:02.967Z,11.99
2017-06-05T00:15:50.329Z,12.04
2017-06-05T00:16:31.997Z,12.04
2017-06-05T00:17:12.653Z,12
2017-06-05T00:17:53.303Z,12.03
2017-06-05T00:18:33.954Z,12.03
2017-06-05T00:19:14.609Z,11.99
2017-06-05T00:19:55.276Z,11.99
2017-06-05T00:20:36.944Z,12
2017-06-05T00:21:17.523Z,12.04
2017-06-05T00:21:59.212Z,12.04
2017-06-05T00:22:40.902Z,12.1
2017-06-05T00:23:22.621Z,12.13
2017-06-05T00:24:03.217Z,12.04
2017-06-05T00:24:43.846Z,12.06
2017-06-05T00:25:24.597Z,12.12
2017-06-05T00:26:05.235Z,12.04
2017-06-05T00:26:45.829Z,12.06
2017-06-05T00:27:26.477Z,12.12
2017-06-05T00:28:07.173Z,11.99
2017-06-05T00:28:52.865Z,12.02
2017-06-05T00:29:33.456Z,12.04
2017-06-05T00:30:15.102Z,12.03
2017-06-05T00:30:55.816Z,12.06
2017-06-05T00:31:36.448Z,12.04
2017-06-05T00:32:18.150Z,12.04
2017-06-05T00:32:59.804Z,12.09
2017-06-05T00:33:40.463Z,12.07
2017-06-05T00:34:26.958Z,12.02
2017-06-05T00:35:07.612Z,12.06
2017-06-05T00:35:48.667Z,12.09
2017-06-05T00:36:30.317Z,12.07
2017-06-05T00:37:10.968Z,12.04
2017-06-05T00:37:51.611Z,12.03
2017-06-05T00:38:32.286Z,12.13
2017-06-05T00:39:14.987Z,12.1
2017-06-05T00:39:55.657Z,12.04
2017-06-05T00:40:37.298Z,12.04
2017-06-05T00:41:17.972Z,12.1
2017-06-05T00:41:59.614Z,12.09
2017-06-05T00:42:40.276Z,12.12
2017-06-05T00:43:22.984Z,12.12
2017-06-05T00:44:03.645Z,12.03
2017-06-05T00:44:44.296Z,12.04
2017-06-05T00:45:24.838Z,12.06
2017-06-05T00:46:10.447Z,12.1
2017-06-05T00:46:51.036Z,12.02
2017-06-05T00:47:31.551Z,12.02
2017-06-05T00:48:12.157Z,11.99
2017-06-05T00:48:53.772Z,12.04
2017-06-05T00:49:36.423Z,12.06
2017-06-05T00:50:16.952Z,11.91
2017-06-05T00:50:58.664Z,11.95
2017-06-05T00:51:39.329Z,12.02
2017-06-05T00:52:19.973Z,11.91
2017-06-05T00:53:00.631Z,11.9
2017-06-05T00:53:46.211Z,11.91
2017-06-05T00:54:26.848Z,11.97
2017-06-05T00:55:07.496Z,11.87
2017-06-05T00:55:49.082Z,11.84
2017-06-05T00:56:30.819Z,11.86
2017-06-05T00:57:12.482Z,11.83
2017-06-05T00:57:53.084Z,11.77
2017-06-05T00:58:33.737Z,11.78
2017-06-05T00:59:14.381Z,11.83
2017-06-05T01:00:01.708Z,11.69
2017-06-05T01:00:43.375Z,11.68
2017-06-05T01:01:24.002Z,11.66
2017-06-05T01:02:04.550Z,11.63
2017-06-05T01:02:45.130Z,11.59
2017-06-05T01:03:25.761Z,11.63
2017-06-05T01:04:06.280Z,11.63
2017-06-05T01:04:46.912Z,11.52
2017-06-05T01:05:27.615Z,11.52
2017-06-05T01:06:08.371Z,11.5
2017-06-05T01:06:49.022Z,11.52
2017-06-05T01:07:30.596Z,11.5
2017-06-05T01:08:12.270Z,11.44
2017-06-05T01:08:57.841Z,11.52
2017-06-05T01:09:39.518Z,11.5
2017-06-05T01:10:25.802Z,11.5
2017-06-05T01:11:06.387Z,11.43
2017-06-05T01:11:47.028Z,11.41
2017-06-05T01:12:27.626Z,11.41
2017-06-05T01:13:09.233Z,11.37
2017-06-05T01:13:49.852Z,11.37
2017-06-05T01:14:30.479Z,11.36
2017-06-05T01:15:12.180Z,11.35
2017-06-05T01:15:54.823Z,11.35
2017-06-05T01:16:35.466Z,11.23
2017-06-05T01:17:17.032Z,11.26
2017-06-05T01:17:59.637Z,11.23
2017-06-05T01:18:40.291Z,11.27
2017-06-05T01:19:25.855Z,11.27
2017-06-05T01:20:06.510Z,11.22
2017-06-05T01:20:47.163Z,11.17
2017-06-05T01:21:28.737Z,11.07
2017-06-05T01:22:11.334Z,11.19
2017-06-05T01:22:52.911Z,11.18
2017-06-05T01:23:33.608Z,11.05
2017-06-05T01:24:14.218Z,11.1
2017-06-05T01:24:54.767Z,11.08
2017-06-05T01:25:35.419Z,11.14
2017-06-05T01:26:16.005Z,11.07
2017-06-05T01:27:03.201Z,11.07
2017-06-05T01:28:00.670Z,10.97
2017-06-05T01:28:47.133Z,11.04
2017-06-05T01:29:27.788Z,10.97
2017-06-05T01:30:08.450Z,11.02
2017-06-05T01:30:49.090Z,10.96
2017-06-05T01:31:29.742Z,10.93
2017-06-05T01:32:15.116Z,10.93
2017-06-05T01:32:55.784Z,10.97
2017-06-05T01:33:36.432Z,10.93
2017-06-05T01:34:22.701Z,10.84
2017-06-05T01:35:04.360Z,10.93
2017-06-05T01:35:45.961Z,10.89
2017-06-05T01:36:26.536Z,10.89
2017-06-05T01:37:07.134Z,10.86
2017-06-05T01:37:47.679Z,10.89
2017-06-05T01:38:28.256Z,10.9
2017-06-05T01:39:08.851Z,10.79
2017-06-05T01:39:49.443Z,10.79
2017-06-05T01:40:29.992Z,10.84
2017-06-05T01:41:22.131Z,10.74
2017-06-05T01:42:04.772Z,10.75
2017-06-05T01:42:57.345Z,10.71
2017-06-05T01:43:37.885Z,10.74
2017-06-05T01:44:18.477Z,10.71
2017-06-05T01:44:59.057Z,10.72
2017-06-05T01:45:41.702Z,10.69
2017-06-05T01:46:22.265Z,10.69
2017-06-05T01:47:03.944Z,10.71
2017-06-05T01:47:44.539Z,10.74
2017-06-05T01:48:27.179Z,10.69
2017-06-05T01:49:07.725Z,10.68
2017-06-05T01:49:49.334Z,10.6
2017-06-05T01:50:30.447Z,10.69
2017-06-05T01:51:11.325Z,10.54
2017-06-05T01:51:53.716Z,10.72
2017-06-05T01:52:34.369Z,10.63
2017-06-05T01:53:15.028Z,10.67
2017-06-05T01:53:55.686Z,10.68
2017-06-05T01:54:36.330Z,10.56
2017-06-05T01:55:18.021Z,10.61
2017-06-05T01:55:58.520Z,10.56
2017-06-05T01:56:40.156Z,10.54
2017-06-05T01:57:20.827Z,10.54
2017-06-05T01:58:10.527Z,10.53
2017-06-05T01:58:52.795Z,10.49
2017-06-05T01:59:35.474Z,10.6
2017-06-05T02:00:16.126Z,10.46
2017-06-05T02:00:57.799Z,10.51
2017-06-05T02:01:38.442Z,10.46
2017-06-05T02:02:19.085Z,10.48
2017-06-05T02:02:59.890Z,10.44
2017-06-05T02:03:40.533Z,10.46
2017-06-05T02:04:21.833Z,10.41
2017-06-05T02:05:02.336Z,10.41
2017-06-05T02:05:42.998Z,10.4
2017-06-05T02:06:23.536Z,10.44
2017-06-05T02:07:04.294Z,10.35
2017-06-05T02:07:49.647Z,10.38
2017-06-05T02:08:30.301Z,10.34
2017-06-05T02:09:11.982Z,10.28
2017-06-05T02:09:52.637Z,10.34
2017-06-05T02:10:33.290Z,10.33
2017-06-05T02:11:13.935Z,10.26
2017-06-05T02:11:54.634Z,10.28
2017-06-05T02:12:37.270Z,10.34
2017-06-05T02:13:17.800Z,10.26
2017-06-05T02:13:58.538Z,10.28
2017-06-05T02:14:39.251Z,10.25
2017-06-05T02:15:19.906Z,10.23
2017-06-05T02:16:07.455Z,10.26
2017-06-05T02:16:48.056Z,10.2
2017-06-05T02:17:28.617Z,10.2
2017-06-05T02:18:09.267Z,10.2
2017-06-05T02:18:50.899Z,10.19
2017-06-05T02:19:31.588Z,10.25
2017-06-05T02:20:12.151Z,10.28
2017-06-05T02:20:52.805Z,10.3
2017-06-05T02:21:33.393Z,10.26
2017-06-05T02:22:15.041Z,10.23
2017-06-05T02:22:55.687Z,10.25
2017-06-05T02:23:36.339Z,10.26
2017-06-05T02:24:16.986Z,10.26
2017-06-05T02:24:57.656Z,10.26
2017-06-05T02:25:38.323Z,10.22
2017-06-05T02:26:19.961Z,10.22
2017-06-05T02:27:00.538Z,10.15
2017-06-05T02:27:41.183Z,10.22
2017-06-05T02:28:21.819Z,10.22
2017-06-05T02:29:02.341Z,10.16
2017-06-05T02:29:43.049Z,10.19
2017-06-05T02:30:23.671Z,10.2
2017-06-05T02:31:04.200Z,10.19
2017-06-05T02:31:44.894Z,10.07
2017-06-05T02:32:27.492Z,10.12
2017-06-05T02:33:08.154Z,10.12
2017-06-05T02:33:48.794Z,10.07
2017-06-05T02:34:29.466Z,10.1
2017-06-05T02:35:14.702Z,10.12
2017-06-05T02:35:56.417Z,10.1
2017-06-05T02:36:37.137Z,10.1
2017-06-05T02:37:17.785Z,10.07
2017-06-05T02:37:58.312Z,10.07
2017-06-05T02:38:38.912Z,10.1
2017-06-05T02:39:19.603Z,10.1
2017-06-05T02:40:01.231Z,10.13
2017-06-05T02:40:42.717Z,10.09
2017-06-05T02:41:23.258Z,10.1
2017-06-05T02:42:03.888Z,10.15
2017-06-05T02:42:44.410Z,10.15
2017-06-05T02:43:25.031Z,10.04
2017-06-05T02:44:05.641Z,10.04
2017-06-05T02:44:46.175Z,10.07
2017-06-05T02:45:26.768Z,10.13
2017-06-05T02:46:08.419Z,10.09
2017-06-05T02:46:49.076Z,10.04
2017-06-05T02:47:29.735Z,10.02
2017-06-05T02:48:10.388Z,10.1
2017-06-05T02:48:51.035Z,10.05
2017-06-05T02:49:31.702Z,10.12
2017-06-05T02:50:12.342Z,10.17
2017-06-05T02:50:52.989Z,10.09
2017-06-05T02:51:33.516Z,10.12
2017-06-05T02:52:14.207Z,10.1
2017-06-05T02:52:54.923Z,10.1
2017-06-05T02:53:35.605Z,10.1
2017-06-05T02:54:17.202Z,10.05
2017-06-05T02:54:58.496Z,10.1
2017-06-05T02:55:39.467Z,10.12
2017-06-05T02:56:20.749Z,10.13
2017-06-05T02:57:01.262Z,10.19
2017-06-05T02:57:41.893Z,10.09
2017-06-05T02:58:23.466Z,10.17
2017-06-05T02:59:04.381Z,10.17
2017-06-05T02:59:44.930Z,10.23
2017-06-05T03:00:25.793Z,10.13
2017-06-05T03:01:06.414Z,10.28
2017-06-05T03:01:46.997Z,10.26
2017-06-05T03:02:27.537Z,10.28
2017-06-05T03:03:08.117Z,10.28
2017-06-05T03:03:48.708Z,10.26
2017-06-05T03:04:29.315Z,10.2
2017-06-05T03:05:09.820Z,10.26
2017-06-05T03:05:50.430Z,10.17
2017-06-05T03:06:32.036Z,10.2
2017-06-05T03:07:12.698Z,10.22
2017-06-05T03:07:53.711Z,10.22
2017-06-05T03:08:34.323Z,10.22
2017-06-05T03:09:15.942Z,10.2
2017-06-05T03:09:56.641Z,10.25
2017-06-05T03:10:37.491Z,10.3
2017-06-05T03:11:18.572Z,10.31
2017-06-05T03:11:59.875Z,10.3
2017-06-05T03:12:40.978Z,10.3
2017-06-05T03:13:21.642Z,10.34
2017-06-05T03:14:02.331Z,10.3
2017-06-05T03:14:42.886Z,10.34
2017-06-05T03:15:23.558Z,10.28
2017-06-05T03:16:04.154Z,10.33
2017-06-05T03:16:44.805Z,10.33
2017-06-05T03:17:25.458Z,10.3
2017-06-05T03:18:06.108Z,10.22
2017-06-05T03:18:46.767Z,10.31
2017-06-05T03:19:27.416Z,10.31
2017-06-05T03:20:08.064Z,10.28
2017-06-05T03:20:48.721Z,10.26
2017-06-05T03:21:29.375Z,10.2
2017-06-05T03:22:10.032Z,10.35
2017-06-05T03:22:50.680Z,10.33
2017-06-05T03:23:31.333Z,10.33
2017-06-05T03:24:11.988Z,10.3
2017-06-05T03:24:52.637Z,10.23
2017-06-05T03:25:33.308Z,10.23
2017-06-05T03:26:13.969Z,10.26
2017-06-05T03:26:54.599Z,10.2
2017-06-05T03:27:35.244Z,10.25
2017-06-05T03:28:15.892Z,10.22
2017-06-05T03:28:56.556Z,10.3
2017-06-05T03:29:37.207Z,10.34
2017-06-05T03:30:17.859Z,10.22
2017-06-05T03:30:58.518Z,10.3
2017-06-05T03:31:39.174Z,10.23
2017-06-05T03:32:19.820Z,10.28
2017-06-05T03:33:00.366Z,10.28
2017-06-05T03:33:41.025Z,10.35
2017-06-05T03:34:21.665Z,10.2
2017-06-05T03:35:02.324Z,10.23
2017-06-05T03:35:42.976Z,10.2
2017-06-05T03:36:23.561Z,10.23
2017-06-05T03:37:04.141Z,10.31
2017-06-05T03:37:44.760Z,10.31
2017-06-05T03:38:25.382Z,10.34
2017-06-05T03:39:06.073Z,10.35
2017-06-05T03:39:46.613Z,10.34
2017-06-05T03:40:27.178Z,10.35
2017-06-05T03:41:07.787Z,10.41
2017-06-05T03:41:48.436Z,10.34
2017-06-05T03:42:29.086Z,10.28
2017-06-05T03:43:09.747Z,10.38
2017-06-05T03:43:50.401Z,10.38
2017-06-05T03:44:31.057Z,10.42
2017-06-05T03:45:11.708Z,10.41
2017-06-05T03:45:52.362Z,10.48
2017-06-05T03:46:33.019Z,10.4
2017-06-05T03:47:13.632Z,10.44
2017-06-05T03:47:54.276Z,10.49
2017-06-05T03:48:34.944Z,10.48
2017-06-05T03:49:15.612Z,10.48
2017-06-05T03:49:56.130Z,10.46
2017-06-05T03:50:36.765Z,10.51
2017-06-05T03:51:17.417Z,10.48
2017-06-05T03:51:58.081Z,10.53
2017-06-05T03:52:39.642Z,10.57
2017-06-05T03:53:20.191Z,10.61
2017-06-05T03:54:00.855Z,10.49
2017-06-05T03:54:41.502Z,10.63
2017-06-05T03:55:22.157Z,10.53
2017-06-05T03:56:02.687Z,10.64
2017-06-05T03:56:43.285Z,10.59
2017-06-05T03:57:23.861Z,10.61
2017-06-05T03:58:04.564Z,10.61
2017-06-05T03:58:45.114Z,10.72
2017-06-05T03:59:25.666Z,10.67
2017-06-05T04:00:06.269Z,10.72
2017-06-05T04:00:46.870Z,10.81
2017-06-05T04:01:28.545Z,10.79
2017-06-05T04:02:09.193Z,10.79
2017-06-05T04:02:49.852Z,10.87
2017-06-05T04:03:30.498Z,10.86
2017-06-05T04:04:11.155Z,10.92
2017-06-05T04:04:51.805Z,10.89
2017-06-05T04:05:32.459Z,11.02
2017-06-05T04:06:12.990Z,10.97
2017-06-05T04:06:53.579Z,10.99
2017-06-05T04:07:35.239Z,11.1
2017-06-05T04:08:15.765Z,11.19
2017-06-05T04:08:56.355Z,11.17
2017-06-05T04:09:36.992Z,11.25
2017-06-05T04:10:17.535Z,11.23
2017-06-05T04:10:58.257Z,11.25
2017-06-05T04:11:38.847Z,11.33
2017-06-05T04:12:19.506Z,11.44
2017-06-05T04:13:00.158Z,11.41
2017-06-05T04:13:40.808Z,11.41
2017-06-05T04:14:22.379Z,11.51
2017-06-05T04:15:03.033Z,11.45
2017-06-05T04:15:43.690Z,11.45
2017-06-05T04:16:24.252Z,11.52
2017-06-05T04:17:04.927Z,11.52
2017-06-05T04:17:45.545Z,11.54
2017-06-05T04:18:26.070Z,11.62
2017-06-05T04:19:07.734Z,11.65
2017-06-05T04:19:48.422Z,11.66
2017-06-05T04:20:28.957Z,11.73
2017-06-05T04:21:09.561Z,11.68
2017-06-05T04:21:50.179Z,11.81
2017-06-05T04:22:30.730Z,11.88
2017-06-05T04:23:11.307Z,11.86
2017-06-05T04:23:52.911Z,11.84
2017-06-05T04:24:33.532Z,11.8
2017-06-05T04:25:14.116Z,11.87
2017-06-05T04:25:54.803Z,11.9
2017-06-05T04:26:35.511Z,11.91
2017-06-05T04:27:16.078Z,11.9
2017-06-05T04:27:56.647Z,11.97
2017-06-05T04:28:37.309Z,11.94
2017-06-05T04:29:17.986Z,12.04
2017-06-05T04:29:58.583Z,11.99
2017-06-05T04:30:39.094Z,12.06
2017-06-05T04:31:19.797Z,12.07
2017-06-05T04:32:00.498Z,12.07
2017-06-05T04:32:41.099Z,12.13
2017-06-05T04:33:21.634Z,12.17
2017-06-05T04:34:02.317Z,12.17
2017-06-05T04:34:43.036Z,12.24
2017-06-05T04:35:23.611Z,12.35
2017-06-05T04:36:04.135Z,12.31
2017-06-05T04:36:44.826Z,12.36
2017-06-05T04:37:25.515Z,12.35
2017-06-05T04:38:06.205Z,12.36
2017-06-05T04:38:46.739Z,12.36
2017-06-05T04:39:27.425Z,12.45
2017-06-05T04:40:08.131Z,12.55
2017-06-05T04:40:48.817Z,12.49
2017-06-05T04:41:29.355Z,12.53
2017-06-05T04:42:10.036Z,12.54
2017-06-05T04:42:50.570Z,12.67
2017-06-05T04:43:31.294Z,12.68
2017-06-05T04:44:11.944Z,12.73
2017-06-05T04:44:52.639Z,12.76
2017-06-05T04:45:33.197Z,12.73
2017-06-05T04:46:13.915Z,12.83
2017-06-05T04:46:54.564Z,12.87
2017-06-05T04:47:35.290Z,13
2017-06-05T04:48:16.016Z,12.95
2017-06-05T04:48:56.677Z,13.01
2017-06-05T04:49:37.340Z,13.05
2017-06-05T04:50:17.970Z,13.09
2017-06-05T04:50:58.680Z,13.05
2017-06-05T04:51:39.332Z,13.03
2017-06-05T04:52:19.985Z,13.04
2017-06-05T04:53:00.653Z,13.08
2017-06-05T04:53:41.295Z,13.09
2017-06-05T04:54:21.944Z,13.12
2017-06-05T04:55:02.703Z,13.28
2017-06-05T04:55:44.368Z,13.28
2017-06-05T04:56:25.076Z,13.37
2017-06-05T04:57:05.622Z,13.28
2017-06-05T04:57:46.331Z,13.38
2017-06-05T04:58:26.994Z,13.39
2017-06-05T04:59:07.692Z,13.46
2017-06-05T04:59:48.213Z,13.54
2017-06-05T05:00:28.923Z,13.56
2017-06-05T05:01:09.612Z,13.59
2017-06-05T05:01:50.253Z,13.6
2017-06-05T05:02:30.907Z,13.59
2017-06-05T05:03:11.556Z,13.74
2017-06-05T05:03:52.254Z,13.74
2017-06-05T05:04:32.965Z,13.79
2017-06-05T05:05:13.636Z,13.81
2017-06-05T05:05:54.387Z,13.77
2017-06-05T05:06:36.100Z,13.87
2017-06-05T05:07:16.651Z,13.85
2017-06-05T05:07:57.328Z,13.89
2017-06-05T05:08:38.057Z,13.89
2017-06-05T05:09:18.605Z,13.97
2017-06-05T05:09:59.269Z,14
2017-06-05T05:10:40.021Z,13.92
2017-06-05T05:11:20.779Z,14.04
2017-06-05T05:12:01.524Z,14.03
2017-06-05T05:12:42.178Z,14
2017-06-05T05:13:22.828Z,14.04
2017-06-05T05:14:03.481Z,14.12
2017-06-05T05:14:44.134Z,14.1
2017-06-05T05:15:24.688Z,14.07
2017-06-05T05:16:05.441Z,14.11
2017-06-05T05:16:45.953Z,14.2
2017-06-05T05:17:26.658Z,14.14
2017-06-05T05:18:07.322Z,14.17
2017-06-05T05:18:48.061Z,14.22
2017-06-05T05:19:28.711Z,14.23
2017-06-05T05:20:12.192Z,14.17
2017-06-05T05:20:52.893Z,14.17
2017-06-05T05:21:33.416Z,14.17
2017-06-05T05:22:14.049Z,14.23
2017-06-05T05:22:54.688Z,14.17
2017-06-05T05:23:35.211Z,14.26
2017-06-05T05:24:15.804Z,14.22
2017-06-05T05:24:56.444Z,14.26
2017-06-05T05:25:36.985Z,14.41
2017-06-05T05:26:17.524Z,14.36
2017-06-05T05:26:58.238Z,14.48
2017-06-05T05:27:39.892Z,14.45
2017-06-05T05:28:20.549Z,14.53
2017-06-05T05:29:01.208Z,14.54
2017-06-05T05:29:41.857Z,14.62
2017-06-05T05:30:22.511Z,14.55
2017-06-05T05:31:03.155Z,14.59
2017-06-05T05:31:43.849Z,14.58
2017-06-05T05:32:24.446Z,14.62
2017-06-05T05:33:04.980Z,14.53
2017-06-05T05:33:45.679Z,14.68
2017-06-05T05:34:26.355Z,14.62
2017-06-05T05:35:07.058Z,14.7
2017-06-05T05:35:47.583Z,14.66
2017-06-05T05:36:28.289Z,14.66
2017-06-05T05:37:08.933Z,14.68
2017-06-05T05:37:49.581Z,14.77
2017-06-05T05:38:30.256Z,14.79
2017-06-05T05:39:10.945Z,14.7
2017-06-05T05:39:51.698Z,14.84
2017-06-05T05:40:32.402Z,14.84
2017-06-05T05:41:13.051Z,14.92
2017-06-05T05:41:53.574Z,14.96
2017-06-05T05:42:34.174Z,14.99
2017-06-05T05:43:14.812Z,15.07
2017-06-05T05:43:55.463Z,15.09
2017-06-05T05:44:36.106Z,15.18
2017-06-05T05:45:16.772Z,15.06
2017-06-05T05:45:57.411Z,15.11
2017-06-05T05:46:37.961Z,15.11
2017-06-05T05:47:18.502Z,15.19
2017-06-05T05:47:59.176Z,15.22
2017-06-05T05:48:39.864Z,15.28
2017-06-05T05:49:20.563Z,15.29
2017-06-05T05:50:01.076Z,15.33
2017-06-05T05:50:41.683Z,15.33
2017-06-05T05:51:22.370Z,15.35
2017-06-05T05:52:02.988Z,15.37
2017-06-05T05:52:43.652Z,15.47
2017-06-05T05:53:24.201Z,15.46
2017-06-05T05:54:04.846Z,15.47
2017-06-05T05:54:45.502Z,15.49
2017-06-05T05:55:26.166Z,15.54
2017-06-05T05:56:06.868Z,15.54
2017-06-05T05:56:47.578Z,15.54
2017-06-05T05:57:28.228Z,15.58
2017-06-05T05:58:08.882Z,15.58
2017-06-05T05:58:49.540Z,15.64
2017-06-05T05:59:30.169Z,15.73
2017-06-05T06:00:10.844Z,15.84
2017-06-05T06:00:51.495Z,15.82
2017-06-05T06:01:32.156Z,15.67
2017-06-05T06:02:12.822Z,15.82
2017-06-05T06:02:53.491Z,15.9
2017-06-05T06:03:34.005Z,15.83
2017-06-05T06:04:14.615Z,15.98
2017-06-05T06:04:55.318Z,16.02
2017-06-05T06:05:35.997Z,16.09
2017-06-05T06:06:16.547Z,16.15
2017-06-05T06:06:57.201Z,16.16
2017-06-05T06:07:37.853Z,16.15
2017-06-05T06:08:19.527Z,16.16
2017-06-05T06:09:00.183Z,16.17
2017-06-05T06:09:40.841Z,16.33
2017-06-05T06:10:21.488Z,16.38
2017-06-05T06:11:02.143Z,16.39
2017-06-05T06:11:42.896Z,16.47
2017-06-05T06:12:23.553Z,16.51
2017-06-05T06:13:04.201Z,16.6
2017-06-05T06:13:44.872Z,16.54
2017-06-05T06:14:25.514Z,16.57
2017-06-05T06:15:10.973Z,16.61
2017-06-05T06:15:51.730Z,16.66
2017-06-05T06:16:32.405Z,16.6
2017-06-05T06:17:13.082Z,16.58
2017-06-05T06:17:59.599Z,16.66
2017-06-05T06:18:40.282Z,16.57
2017-06-05T06:19:20.827Z,16.58
2017-06-05T06:20:01.515Z,16.58
2017-06-05T06:20:42.195Z,16.61
2017-06-05T06:21:22.824Z,16.51
2017-06-05T06:22:03.511Z,16.58
2017-06-05T06:22:45.129Z,16.64
2017-06-05T06:23:25.696Z,16.69
2017-06-05T06:24:07.369Z,16.78
2017-06-05T06:24:48.165Z,16.76
2017-06-05T06:25:28.858Z,16.83
2017-06-05T06:26:09.401Z,16.89
2017-06-05T06:26:49.978Z,16.89
2017-06-05T06:27:30.653Z,16.86
2017-06-05T06:28:11.284Z,16.79
2017-06-05T06:28:51.972Z,16.86
2017-06-05T06:29:32.617Z,16.9
2017-06-05T06:30:14.317Z,16.93
2017-06-05T06:30:54.979Z,16.86
2017-06-05T06:31:35.510Z,16.97
2017-06-05T06:32:16.151Z,16.93
2017-06-05T06:32:57.835Z,16.9
2017-06-05T06:33:38.472Z,16.9
2017-06-05T06:34:19.277Z,17.01
2017-06-05T06:34:59.881Z,16.9
2017-06-05T06:35:40.599Z,17.02
2017-06-05T06:36:21.310Z,17.01
2017-06-05T06:37:01.941Z,16.97
2017-06-05T06:37:42.500Z,17.02
2017-06-05T06:38:23.154Z,17.05
2017-06-05T06:39:03.766Z,17.08
2017-06-05T06:39:44.348Z,17.02
2017-06-05T06:40:25.007Z,17.06
2017-06-05T06:41:07.685Z,17.05
2017-06-05T06:41:48.275Z,17.04
2017-06-05T06:42:30.994Z,17.05
2017-06-05T06:43:11.613Z,17.09
2017-06-05T06:43:52.283Z,17.14
2017-06-05T06:44:32.921Z,17.15
2017-06-05T06:45:13.573Z,17.16
2017-06-05T06:45:54.226Z,17.15
2017-06-05T06:46:34.900Z,17.12
2017-06-05T06:47:20.263Z,17.2
2017-06-05T06:48:00.910Z,17.11
2017-06-05T06:48:41.562Z,17.19
2017-06-05T06:49:23.227Z,17.23
2017-06-05T06:50:03.879Z,17.24
2017-06-05T06:50:44.547Z,17.26
2017-06-05T06:51:25.186Z,17.27
2017-06-05T06:52:06.856Z,17.26
2017-06-05T06:52:47.623Z,17.33
2017-06-05T06:53:28.285Z,17.34
2017-06-05T06:54:08.908Z,17.38
2017-06-05T06:54:50.682Z,17.42
2017-06-05T06:55:31.409Z,17.45
2017-06-05T06:56:12.116Z,17.44
2017-06-05T06:56:53.751Z,17.34
2017-06-05T06:57:34.320Z,17.39
2017-06-05T06:58:15.001Z,17.46
2017-06-05T06:58:55.669Z,17.51
2017-06-05T06:59:36.365Z,17.39
2017-06-05T07:00:16.947Z,17.45
2017-06-05T07:00:59.575Z,17.31
2017-06-05T07:01:40.267Z,17.38
2017-06-05T07:02:20.814Z,17.36
2017-06-05T07:03:01.647Z,17.48
2017-06-05T07:03:43.280Z,17.52
2017-06-05T07:04:23.958Z,17.54
2017-06-05T07:05:05.624Z,17.56
2017-06-05T07:05:46.276Z,17.65
2017-06-05T07:06:26.928Z,17.68
2017-06-05T07:07:07.716Z,17.7
2017-06-05T07:07:49.420Z,17.79
2017-06-05T07:08:29.973Z,17.74
2017-06-05T07:09:12.635Z,17.71
2017-06-05T07:09:54.352Z,17.68
2017-06-05T07:10:34.923Z,17.74
2017-06-05T07:11:15.582Z,17.8
2017-06-05T07:11:56.292Z,17.76
2017-06-05T07:12:36.981Z,17.8
2017-06-05T07:13:17.537Z,17.8
2017-06-05T07:13:58.202Z,17.82
2017-06-05T07:14:39.879Z,17.83
2017-06-05T07:15:20.477Z,17.76
2017-06-05T07:16:01.214Z,17.76
2017-06-05T07:16:41.890Z,17.79
2017-06-05T07:17:22.599Z,17.79
2017-06-05T07:18:03.317Z,17.74
2017-06-05T07:18:44.044Z,17.74
2017-06-05T07:19:25.774Z,17.74
2017-06-05T07:20:06.413Z,17.72
2017-06-05T07:20:47.086Z,17.78
2017-06-05T07:21:27.778Z,17.83
2017-06-05T07:22:08.446Z,17.83
2017-06-05T07:22:49.120Z,17.82
2017-06-05T07:23:29.701Z,17.78
2017-06-05T07:24:10.437Z,17.8
2017-06-05T07:24:51.029Z,17.82
2017-06-05T07:25:31.648Z,17.8
2017-06-05T07:26:12.179Z,17.87
2017-06-05T07:26:52.794Z,17.83
2017-06-05T07:27:33.427Z,17.8
2017-06-05T07:28:13.989Z,17.82
2017-06-05T07:28:54.618Z,17.86
2017-06-05T07:29:35.168Z,17.74
2017-06-05T07:30:15.870Z,17.78
2017-06-05T07:30:56.546Z,17.74
2017-06-05T07:31:37.113Z,17.76
2017-06-05T07:32:22.303Z,17.78
2017-06-05T07:33:02.993Z,17.82
2017-06-05T07:33:43.636Z,17.8
2017-06-05T07:34:24.326Z,17.78
2017-06-05T07:35:05.011Z,17.82
2017-06-05T07:35:45.596Z,17.76
2017-06-05T07:36:26.251Z,17.78
2017-06-05T07:37:06.865Z,17.72
2017-06-05T07:37:47.568Z,17.74
2017-06-05T07:38:28.145Z,17.78
2017-06-05T07:39:09.767Z,17.7
2017-06-05T07:39:50.395Z,17.71
2017-06-05T07:40:31.057Z,17.71
2017-06-05T07:41:11.709Z,17.7
2017-06-05T07:41:52.365Z,17.76
2017-06-05T07:42:33.976Z,17.68
2017-06-05T07:43:14.508Z,17.7
2017-06-05T07:43:55.108Z,17.8
2017-06-05T07:44:36.715Z,17.71
2017-06-05T07:45:17.431Z,17.7
2017-06-05T07:45:58.086Z,17.74
2017-06-05T07:46:38.765Z,17.74
2017-06-05T07:47:19.457Z,17.7
2017-06-05T07:48:00.126Z,17.78
2017-06-05T07:48:40.719Z,17.71
2017-06-05T07:49:21.304Z,17.76
2017-06-05T07:50:01.925Z,17.78
2017-06-05T07:50:42.476Z,17.76
2017-06-05T07:51:23.119Z,17.79
2017-06-05T07:52:03.791Z,17.74
2017-06-05T07:52:44.373Z,17.72
2017-06-05T07:53:25.126Z,17.78
2017-06-05T07:54:05.745Z,17.74
2017-06-05T07:54:47.354Z,17.67
2017-06-05T07:55:29.015Z,17.71
2017-06-05T07:56:09.699Z,17.72
2017-06-05T07:56:50.347Z,17.76
2017-06-05T07:57:30.898Z,17.74
2017-06-05T07:58:11.469Z,17.72
2017-06-05T07:58:52.038Z,17.78
2017-06-05T07:59:32.742Z,17.76
2017-06-05T08:00:13.354Z,17.7
2017-06-05T08:00:54.022Z,17.76
2017-06-05T08:01:34.597Z,17.8
2017-06-05T08:02:15.231Z,17.74
2017-06-05T08:02:55.887Z,17.71
2017-06-05T08:03:36.589Z,17.71
2017-06-05T08:04:17.148Z,17.68
2017-06-05T08:04:57.711Z,17.68
2017-06-05T08:05:39.423Z,17.68
2017-06-05T08:06:20.065Z,17.74
2017-06-05T08:07:00.605Z,17.65
2017-06-05T08:07:41.158Z,17.67
2017-06-05T08:08:21.698Z,17.67
2017-06-05T08:09:02.275Z,17.68
2017-06-05T08:09:43.488Z,17.7
2017-06-05T08:10:24.095Z,17.7
2017-06-05T08:11:04.625Z,17.68
2017-06-05T08:11:45.246Z,17.64
2017-06-05T08:12:25.759Z,17.76
2017-06-05T08:13:06.342Z,17.68
2017-06-05T08:13:48.942Z,17.74
2017-06-05T08:14:29.601Z,17.68
2017-06-05T08:15:10.137Z,17.67
2017-06-05T08:15:50.741Z,17.74
2017-06-05T08:16:31.252Z,17.71
2017-06-05T08:17:11.813Z,17.71
2017-06-05T08:17:52.396Z,17.72
2017-06-05T08:18:32.942Z,17.76
2017-06-05T08:19:13.558Z,17.82
2017-06-05T08:19:54.103Z,17.79
2017-06-05T08:20:34.694Z,17.87
2017-06-05T08:21:15.250Z,17.82
2017-06-05T08:21:55.822Z,17.86
2017-06-05T08:22:36.403Z,17.87
2017-06-05T08:23:16.983Z,17.87
2017-06-05T08:23:57.566Z,17.89
2017-06-05T08:24:38.107Z,17.9
2017-06-05T08:25:18.716Z,17.95
2017-06-05T08:25:59.258Z,17.9
2017-06-05T08:26:39.770Z,17.97
2017-06-05T08:27:20.320Z,18.04
2017-06-05T08:28:00.850Z,18.04
2017-06-05T08:28:41.360Z,18.16
2017-06-05T08:29:21.876Z,18.11
2017-06-05T08:30:02.439Z,18.15
2017-06-05T08:30:43.010Z,18.31
2017-06-05T08:31:23.616Z,18.31
2017-06-05T08:32:04.161Z,18.34
2017-06-05T08:32:44.911Z,18.38
2017-06-05T08:33:25.623Z,18.47
2017-06-05T08:34:06.264Z,18.5
2017-06-05T08:34:46.888Z,18.43
2017-06-05T08:35:27.460Z,18.52
2017-06-05T08:36:09.357Z,18.66
2017-06-05T08:36:49.873Z,18.63
2017-06-05T08:37:30.467Z,18.71
2017-06-05T08:38:11.026Z,18.71
2017-06-05T08:38:51.688Z,18.8
2017-06-05T08:39:32.245Z,18.89
2017-06-05T08:40:12.823Z,18.93
2017-06-05T08:40:53.411Z,19.11
2017-06-05T08:41:34.040Z,19.07
2017-06-05T08:42:14.676Z,19.24
2017-06-05T08:42:55.222Z,19.31
2017-06-05T08:43:35.745Z,19.37
2017-06-05T08:44:17.345Z,19.55
2017-06-05T08:44:57.882Z,19.55
2017-06-05T08:45:38.468Z,19.64
2017-06-05T08:46:19.032Z,19.69
2017-06-05T08:46:59.554Z,19.88
2017-06-05T08:47:40.154Z,19.94
2017-06-05T08:48:20.807Z,19.99
2017-06-05T08:49:01.400Z,20.04
2017-06-05T08:49:42.207Z,20.03
2017-06-05T08:50:22.845Z,20.07
2017-06-05T08:51:03.387Z,20.09